createdAt,value
2022-12-28T00:00:54.617Z,10.20
2022-12-28T00:01:56.433Z,10.13
2022-12-28T00:02:58.848Z,10.11
2022-12-28T00:04:00.607Z,10.06
2022-12-28T00:05:02.402Z,10.01
2022-12-28T00:06:04.366Z,9.97
2022-12-28T00:07:06.159Z,9.89
2022-12-28T00:08:07.960Z,9.85
2022-12-28T00:09:09.745Z,9.84
2022-12-28T00:10:12.049Z,9.85
2022-12-28T00:11:20.331Z,9.86
2022-12-28T00:12:17.463Z,9.80
2022-12-28T00:13:19.266Z,9.73
2022-12-28T00:14:21.047Z,9.68
2022-12-28T00:15:22.892Z,9.64
2022-12-28T00:16:24.799Z,9.63
2022-12-28T00:17:26.638Z,9.64
2022-12-28T00:18:28.415Z,9.66
2022-12-28T00:19:30.346Z,9.69
2022-12-28T00:20:32.399Z,9.70
2022-12-28T00:21:34.219Z,9.69
2022-12-28T00:22:35.996Z,9.71
2022-12-28T00:23:37.793Z,9.72
2022-12-28T00:24:39.587Z,9.75
2022-12-28T00:25:41.384Z,9.77
2022-12-28T00:26:43.415Z,9.81
2022-12-28T00:27:46.929Z,9.82
2022-12-28T00:28:48.711Z,9.82
2022-12-28T00:29:50.507Z,9.80
2022-12-28T00:30:52.395Z,9.75
2022-12-28T00:31:54.261Z,9.71
2022-12-28T00:32:55.994Z,9.65
2022-12-28T00:33:57.804Z,9.63
2022-12-28T00:34:59.722Z,9.60
2022-12-28T00:36:01.510Z,9.56
2022-12-28T00:37:10.412Z,9.53
2022-12-28T00:38:06.918Z,9.49
2022-12-28T00:39:08.717Z,9.42
2022-12-28T00:40:10.606Z,9.34
2022-12-28T00:41:14.113Z,9.30
2022-12-28T00:42:15.951Z,9.30
2022-12-28T00:43:17.706Z,9.31
2022-12-28T00:44:19.499Z,9.33
2022-12-28T00:45:21.277Z,9.34
2022-12-28T00:46:23.182Z,9.36
2022-12-28T00:47:25.008Z,9.37
2022-12-28T00:48:26.777Z,9.38
2022-12-28T00:49:28.601Z,9.39
2022-12-28T00:50:30.417Z,9.38
2022-12-28T00:51:32.240Z,9.42
2022-12-28T00:52:34.073Z,9.44
2022-12-28T00:53:35.882Z,9.46
2022-12-28T00:54:37.686Z,9.45
2022-12-28T00:55:39.500Z,9.43
2022-12-28T00:56:41.616Z,9.41
2022-12-28T00:57:43.482Z,9.39
2022-12-28T00:58:45.274Z,9.30
2022-12-28T00:59:47.102Z,9.30
2022-12-28T01:00:49.096Z,9.32
2022-12-28T01:01:51.100Z,9.30
2022-12-28T01:02:53.062Z,9.33
2022-12-28T01:03:55.122Z,9.32
2022-12-28T01:04:56.939Z,9.33
2022-12-28T01:05:58.758Z,9.33
2022-12-28T01:07:00.578Z,9.32
2022-12-28T01:08:02.420Z,9.29
2022-12-28T01:09:04.350Z,9.28
2022-12-28T01:10:06.552Z,9.23
2022-12-28T01:11:08.357Z,9.19
2022-12-28T01:12:10.171Z,9.16
2022-12-28T01:13:12.044Z,9.15
2022-12-28T01:14:13.855Z,9.13
2022-12-28T01:15:15.652Z,9.11
2022-12-28T01:16:17.686Z,9.08
2022-12-28T01:17:19.655Z,9.03
2022-12-28T01:18:21.505Z,8.98
2022-12-28T01:19:23.326Z,8.99
2022-12-28T01:20:25.115Z,8.94
2022-12-28T01:21:26.956Z,8.97
2022-12-28T01:22:28.782Z,8.95
2022-12-28T01:23:30.635Z,8.92
2022-12-28T01:24:32.446Z,8.84
2022-12-28T01:25:34.287Z,8.78
2022-12-28T01:26:36.210Z,8.74
2022-12-28T01:27:38.005Z,8.73
2022-12-28T01:28:39.805Z,8.73
2022-12-28T01:29:41.617Z,8.73
2022-12-28T01:30:43.541Z,8.65
2022-12-28T01:31:45.430Z,8.59
2022-12-28T01:32:47.302Z,8.53
2022-12-28T01:33:49.161Z,8.49
2022-12-28T01:34:50.975Z,8.51
2022-12-28T01:35:52.796Z,8.54
2022-12-28T01:36:54.595Z,8.53
2022-12-28T01:37:56.411Z,8.49
2022-12-28T01:38:58.332Z,8.48
2022-12-28T01:40:00.174Z,8.48
2022-12-28T01:41:01.958Z,8.49
2022-12-28T01:42:03.762Z,8.48
2022-12-28T01:43:05.595Z,8.48
2022-12-28T01:44:07.495Z,8.49
2022-12-28T01:45:09.290Z,8.50
2022-12-28T01:46:11.503Z,8.51
2022-12-28T01:47:13.321Z,8.53
2022-12-28T01:48:15.131Z,8.49
2022-12-28T01:49:16.995Z,8.49
2022-12-28T01:50:19.320Z,8.44
2022-12-28T01:51:21.120Z,8.40
2022-12-28T01:52:22.923Z,8.39
2022-12-28T01:53:24.765Z,8.37
2022-12-28T01:54:26.623Z,8.39
2022-12-28T01:55:28.419Z,8.38
2022-12-28T01:56:30.538Z,8.38
2022-12-28T01:57:32.352Z,8.31
2022-12-28T01:58:34.162Z,8.28
2022-12-28T01:59:36.028Z,8.23
2022-12-28T02:00:38.046Z,8.25
2022-12-28T02:01:39.926Z,8.22
2022-12-28T02:02:41.850Z,8.16
2022-12-28T02:03:43.774Z,8.12
2022-12-28T02:04:45.623Z,8.09
2022-12-28T02:05:47.427Z,8.08
2022-12-28T02:06:49.235Z,8.03
2022-12-28T02:07:51.052Z,8.03
2022-12-28T02:08:52.882Z,8.03
2022-12-28T02:10:41.209Z,8.02
2022-12-28T02:10:58.552Z,8.01
2022-12-28T02:12:00.355Z,8.03
2022-12-28T02:13:02.227Z,8.03
2022-12-28T02:14:04.108Z,8.04
2022-12-28T02:15:06.073Z,8.06
2022-12-28T02:16:08.292Z,8.07
2022-12-28T02:17:10.182Z,8.09
2022-12-28T02:18:12.009Z,8.10
2022-12-28T02:19:13.836Z,8.14
2022-12-28T02:20:16.224Z,8.15
2022-12-28T02:21:18.039Z,8.16
2022-12-28T02:22:19.860Z,8.16
2022-12-28T02:23:21.665Z,8.13
2022-12-28T02:24:23.465Z,8.11
2022-12-28T02:25:25.314Z,8.11
2022-12-28T02:26:27.242Z,8.10
2022-12-28T02:27:29.046Z,8.11
2022-12-28T02:28:30.876Z,8.07
2022-12-28T02:29:32.682Z,8.03
2022-12-28T02:30:34.652Z,7.97
2022-12-28T02:31:36.443Z,7.94
2022-12-28T02:32:38.237Z,7.88
2022-12-28T02:33:40.062Z,7.83
2022-12-28T02:34:41.893Z,7.81
2022-12-28T02:35:43.755Z,7.79
2022-12-28T02:36:45.650Z,7.79
2022-12-28T02:37:47.468Z,7.82
2022-12-28T02:38:49.279Z,7.81
2022-12-28T02:39:51.098Z,7.80
2022-12-28T02:40:53.059Z,7.85
2022-12-28T02:41:54.862Z,7.89
2022-12-28T02:42:56.677Z,7.91
2022-12-28T02:43:58.493Z,7.90
2022-12-28T02:45:00.303Z,7.91
2022-12-28T02:46:02.226Z,7.93
2022-12-28T02:47:04.020Z,7.92
2022-12-28T02:48:05.823Z,7.94
2022-12-28T02:49:07.641Z,7.93
2022-12-28T02:50:09.726Z,7.96
2022-12-28T02:51:11.592Z,7.96
2022-12-28T02:52:13.426Z,7.97
2022-12-28T02:53:15.242Z,7.97
2022-12-28T02:54:17.037Z,7.96
2022-12-28T02:55:18.833Z,7.91
2022-12-28T02:56:20.712Z,7.90
2022-12-28T02:57:22.525Z,7.86
2022-12-28T02:58:24.331Z,7.84
2022-12-28T02:59:26.144Z,7.85
2022-12-28T03:00:28.061Z,7.85
2022-12-28T03:01:29.938Z,7.86
2022-12-28T03:02:31.751Z,7.86
2022-12-28T03:03:33.570Z,7.89
2022-12-28T03:04:35.338Z,7.92
2022-12-28T03:05:37.201Z,7.94
2022-12-28T03:06:39.135Z,7.95
2022-12-28T03:07:40.926Z,7.96
2022-12-28T03:08:42.718Z,7.95
2022-12-28T03:09:44.505Z,7.96
2022-12-28T03:10:46.393Z,7.98
2022-12-28T03:11:48.225Z,8.01
2022-12-28T03:12:50.003Z,7.99
2022-12-28T03:13:51.807Z,8.02
2022-12-28T03:14:53.611Z,8.03
2022-12-28T03:15:55.486Z,8.01
2022-12-28T03:16:57.376Z,8.01
2022-12-28T03:17:59.177Z,8.02
2022-12-28T03:19:00.971Z,7.99
2022-12-28T03:20:02.739Z,7.98
2022-12-28T03:21:04.552Z,7.98
2022-12-28T03:22:06.367Z,7.99
2022-12-28T03:23:08.171Z,8.01
2022-12-28T03:24:09.951Z,8.04
2022-12-28T03:25:11.717Z,8.06
2022-12-28T03:26:13.805Z,8.09
2022-12-28T03:27:15.649Z,8.11
2022-12-28T03:28:17.446Z,8.12
2022-12-28T03:29:19.256Z,8.13
2022-12-28T03:30:21.043Z,8.18
2022-12-28T03:31:22.842Z,8.19
2022-12-28T03:32:24.649Z,8.22
2022-12-28T03:33:26.437Z,8.22
2022-12-28T03:34:28.212Z,8.22
2022-12-28T03:35:29.997Z,8.23
2022-12-28T03:36:31.812Z,8.25
2022-12-28T03:37:33.686Z,8.25
2022-12-28T03:38:35.471Z,8.27
2022-12-28T03:39:37.241Z,8.27
2022-12-28T03:40:39.026Z,8.27
2022-12-28T03:41:40.822Z,8.25
2022-12-28T03:42:42.655Z,8.25
2022-12-28T03:43:44.426Z,8.23
2022-12-28T03:44:46.243Z,8.22
2022-12-28T03:45:48.163Z,8.23
2022-12-28T03:46:50.053Z,8.21
2022-12-28T03:47:51.883Z,8.20
2022-12-28T03:48:53.699Z,8.19
2022-12-28T03:49:55.476Z,8.20
2022-12-28T03:50:57.274Z,8.20
2022-12-28T03:51:59.139Z,8.22
2022-12-28T03:53:00.965Z,8.22
2022-12-28T03:54:02.747Z,8.19
2022-12-28T03:55:04.540Z,8.19
2022-12-28T03:56:06.637Z,8.19
2022-12-28T03:57:08.430Z,8.19
2022-12-28T03:58:10.268Z,8.19
2022-12-28T03:59:12.062Z,8.19
2022-12-28T04:00:16.247Z,8.19
2022-12-28T04:01:18.135Z,8.17
2022-12-28T04:02:20.142Z,8.18
2022-12-28T04:03:22.133Z,8.20
2022-12-28T04:04:23.855Z,8.20
2022-12-28T04:05:25.689Z,8.22
2022-12-28T04:06:27.842Z,8.22
2022-12-28T04:07:29.675Z,8.21
2022-12-28T04:08:31.538Z,8.19
2022-12-28T04:09:33.329Z,8.20
2022-12-28T04:10:35.432Z,8.21
2022-12-28T04:11:37.206Z,8.21
2022-12-28T04:12:39.001Z,8.22
2022-12-28T04:13:40.819Z,8.23
2022-12-28T04:14:42.610Z,8.22
2022-12-28T04:15:44.441Z,8.22
2022-12-28T04:16:46.192Z,8.25
2022-12-28T04:17:47.986Z,8.24
2022-12-28T04:18:49.841Z,8.23
2022-12-28T04:19:51.605Z,8.24
2022-12-28T04:20:53.493Z,8.25
2022-12-28T04:21:55.300Z,8.23
2022-12-28T04:22:57.230Z,8.24
2022-12-28T04:23:59.058Z,8.20
2022-12-28T04:25:00.861Z,8.16
2022-12-28T04:26:02.637Z,8.13
2022-12-28T04:27:04.428Z,8.11
2022-12-28T04:28:06.210Z,8.11
2022-12-28T04:29:08.039Z,8.12
2022-12-28T04:30:10.437Z,8.13
2022-12-28T04:31:12.258Z,8.14
2022-12-28T04:32:13.995Z,8.15
2022-12-28T04:33:15.785Z,8.18
2022-12-28T04:34:17.628Z,8.16
2022-12-28T04:35:19.405Z,8.18
2022-12-28T04:36:21.293Z,8.21
2022-12-28T04:37:23.081Z,8.24
2022-12-28T04:38:24.908Z,8.23
2022-12-28T04:39:26.710Z,8.22
2022-12-28T04:40:28.490Z,8.23
2022-12-28T04:41:30.267Z,8.18
2022-12-28T04:42:32.071Z,8.15
2022-12-28T04:43:33.863Z,8.13
2022-12-28T04:44:35.695Z,8.10
2022-12-28T04:45:37.465Z,8.09
2022-12-28T04:46:39.279Z,8.10
2022-12-28T04:47:41.051Z,8.09
2022-12-28T04:48:42.852Z,8.07
2022-12-28T04:49:44.677Z,8.02
2022-12-28T04:50:46.433Z,8.04
2022-12-28T04:51:48.221Z,8.01
2022-12-28T04:52:50.015Z,8.01
2022-12-28T04:53:51.900Z,8.03
2022-12-28T04:54:53.737Z,8.04
2022-12-28T04:55:55.525Z,8.06
2022-12-28T04:56:57.299Z,8.07
2022-12-28T04:57:59.090Z,8.10
2022-12-28T04:59:00.884Z,8.11
2022-12-28T05:00:02.724Z,8.11
2022-12-28T05:01:04.574Z,8.12
2022-12-28T05:02:06.517Z,8.12
2022-12-28T05:03:08.338Z,8.11
2022-12-28T05:04:10.797Z,8.10
2022-12-28T05:05:12.646Z,8.09
2022-12-28T05:06:14.731Z,8.10
2022-12-28T05:07:16.541Z,8.09
2022-12-28T05:08:18.335Z,8.11
2022-12-28T05:09:20.170Z,8.12
2022-12-28T05:10:22.002Z,8.12
2022-12-28T05:11:23.785Z,8.13
2022-12-28T05:12:25.578Z,8.11
2022-12-28T05:13:27.400Z,8.13
2022-12-28T05:14:34.995Z,8.13
2022-12-28T05:15:32.974Z,8.13
2022-12-28T05:16:34.893Z,8.12
2022-12-28T05:17:36.722Z,8.12
2022-12-28T05:18:38.530Z,8.14
2022-12-28T05:19:40.331Z,8.14
2022-12-28T05:20:42.485Z,8.15
2022-12-28T05:21:44.286Z,8.17
2022-12-28T05:22:46.100Z,8.17
2022-12-28T05:23:47.923Z,8.18
2022-12-28T05:24:49.736Z,8.18
2022-12-28T05:25:51.586Z,8.16
2022-12-28T05:26:53.499Z,8.16
2022-12-28T05:27:55.304Z,8.14
2022-12-28T05:28:57.124Z,8.14
2022-12-28T05:29:58.943Z,8.13
2022-12-28T05:31:00.844Z,8.12
2022-12-28T05:32:02.626Z,8.11
2022-12-28T05:33:04.388Z,8.10
2022-12-28T05:34:06.230Z,8.09
2022-12-28T05:35:08.053Z,8.09
2022-12-28T05:36:10.922Z,8.08
2022-12-28T05:37:18.506Z,8.09
2022-12-28T05:38:16.354Z,8.09
2022-12-28T05:39:18.191Z,8.08
2022-12-28T05:40:20.102Z,8.08
2022-12-28T05:41:21.935Z,8.08
2022-12-28T05:42:23.741Z,8.06
2022-12-28T05:43:25.540Z,8.05
2022-12-28T05:44:27.369Z,8.03
2022-12-28T05:45:29.183Z,8.04
2022-12-28T05:46:31.207Z,8.05
2022-12-28T05:47:33.044Z,8.05
2022-12-28T05:48:34.844Z,8.04
2022-12-28T05:49:36.769Z,8.04
2022-12-28T05:50:38.586Z,8.03
2022-12-28T05:51:40.444Z,8.05
2022-12-28T05:52:42.269Z,8.04
2022-12-28T05:53:44.094Z,8.05
2022-12-28T05:54:45.902Z,8.05
2022-12-28T05:55:47.730Z,8.04
2022-12-28T05:56:49.583Z,8.03
2022-12-28T05:57:51.402Z,8.03
2022-12-28T05:58:53.206Z,8.02
2022-12-28T05:59:55.012Z,8.03
2022-12-28T06:00:56.837Z,8.03
2022-12-28T06:01:58.980Z,8.03
2022-12-28T06:03:00.993Z,7.99
2022-12-28T06:04:03.229Z,7.99
2022-12-28T06:05:05.060Z,7.98
2022-12-28T06:06:07.485Z,7.99
2022-12-28T06:07:09.338Z,8.00
2022-12-28T06:08:11.153Z,7.99
2022-12-28T06:09:12.962Z,7.98
2022-12-28T06:10:14.883Z,7.98
2022-12-28T06:11:17.476Z,7.97
2022-12-28T06:12:19.310Z,7.98
2022-12-28T06:13:21.118Z,7.98
2022-12-28T06:14:22.930Z,7.98
2022-12-28T06:15:24.765Z,7.98
2022-12-28T06:16:26.745Z,7.97
2022-12-28T06:17:28.754Z,7.97
2022-12-28T06:18:30.564Z,8.01
2022-12-28T06:19:32.376Z,8.01
2022-12-28T06:20:34.206Z,8.01
2022-12-28T06:21:36.043Z,8.00
2022-12-28T06:22:37.861Z,8.02
2022-12-28T06:23:39.674Z,8.02
2022-12-28T06:24:41.476Z,8.02
2022-12-28T06:25:43.311Z,8.03
2022-12-28T06:26:45.844Z,8.04
2022-12-28T06:27:47.695Z,8.05
2022-12-28T06:28:49.564Z,8.04
2022-12-28T06:29:51.446Z,8.07
2022-12-28T06:30:53.348Z,8.07
2022-12-28T06:31:55.204Z,8.08
2022-12-28T06:32:57.012Z,8.09
2022-12-28T06:33:58.855Z,8.09
2022-12-28T06:35:00.700Z,8.10
2022-12-28T06:36:02.498Z,8.11
2022-12-28T06:37:04.293Z,8.10
2022-12-28T06:38:06.167Z,8.11
2022-12-28T06:39:08.014Z,8.12
2022-12-28T06:40:10.603Z,8.11
2022-12-28T06:41:14.275Z,8.12
2022-12-28T06:42:16.058Z,8.12
2022-12-28T06:43:17.936Z,8.13
2022-12-28T06:44:19.749Z,8.13
2022-12-28T06:45:21.558Z,8.11
2022-12-28T06:46:23.580Z,8.10
2022-12-28T06:47:25.393Z,8.10
2022-12-28T06:48:27.215Z,8.11
2022-12-28T06:49:29.048Z,8.14
2022-12-28T06:50:33.145Z,8.14
2022-12-28T06:51:34.515Z,8.16
2022-12-28T06:52:36.299Z,8.16
2022-12-28T06:53:38.190Z,8.15
2022-12-28T06:54:39.977Z,8.15
2022-12-28T06:55:41.778Z,8.13
2022-12-28T06:56:43.590Z,8.13
2022-12-28T06:57:45.418Z,8.13
2022-12-28T06:58:47.285Z,8.14
2022-12-28T06:59:49.055Z,8.15
2022-12-28T07:00:51.016Z,8.16
2022-12-28T07:01:52.929Z,8.18
2022-12-28T07:02:54.939Z,8.19
2022-12-28T07:03:56.785Z,8.20
2022-12-28T07:04:58.597Z,8.19
2022-12-28T07:06:00.409Z,8.16
2022-12-28T07:07:02.224Z,8.15
2022-12-28T07:08:09.121Z,8.11
2022-12-28T07:09:07.909Z,8.10
2022-12-28T07:10:10.510Z,8.12
2022-12-28T07:11:12.322Z,8.12
2022-12-28T07:12:14.134Z,8.11
2022-12-28T07:13:15.976Z,8.08
2022-12-28T07:14:17.811Z,8.07
2022-12-28T07:15:19.609Z,8.06
2022-12-28T07:16:21.600Z,8.05
2022-12-28T07:17:23.453Z,8.05
2022-12-28T07:18:25.363Z,8.06
2022-12-28T07:19:27.313Z,8.07
2022-12-28T07:20:29.152Z,8.06
2022-12-28T07:21:30.944Z,8.06
2022-12-28T07:22:32.749Z,8.09
2022-12-28T07:23:34.556Z,8.12
2022-12-28T07:24:36.409Z,8.12
2022-12-28T07:25:38.205Z,8.13
2022-12-28T07:26:40.101Z,8.12
2022-12-28T07:27:41.893Z,8.15
2022-12-28T07:28:43.777Z,8.13
2022-12-28T07:29:45.611Z,8.13
2022-12-28T07:30:47.514Z,8.08
2022-12-28T07:31:49.705Z,8.08
2022-12-28T07:32:51.493Z,8.09
2022-12-28T07:33:53.287Z,8.10
2022-12-28T07:34:55.111Z,8.10
2022-12-28T07:35:56.892Z,8.11
2022-12-28T07:36:58.793Z,8.10
2022-12-28T07:38:00.566Z,8.11
2022-12-28T07:39:02.363Z,8.10
2022-12-28T07:40:04.182Z,8.12
2022-12-28T07:41:06.011Z,8.10
2022-12-28T07:42:07.796Z,8.09
2022-12-28T07:43:09.590Z,8.10
2022-12-28T07:44:11.459Z,8.10
2022-12-28T07:45:13.258Z,8.12
2022-12-28T07:46:15.371Z,8.13
2022-12-28T07:47:17.191Z,8.14
2022-12-28T07:48:18.971Z,8.14
2022-12-28T07:49:20.763Z,8.17
2022-12-28T07:50:22.713Z,8.17
2022-12-28T07:51:24.483Z,8.18
2022-12-28T07:52:26.285Z,8.18
2022-12-28T07:53:28.048Z,8.20
2022-12-28T07:54:29.843Z,8.21
2022-12-28T07:55:31.695Z,8.23
2022-12-28T07:57:34.752Z,8.26
2022-12-28T07:58:36.567Z,8.26
2022-12-28T07:59:38.357Z,8.26
2022-12-28T08:00:40.705Z,8.28
2022-12-28T08:01:42.520Z,8.27
2022-12-28T08:02:44.270Z,8.28
2022-12-28T08:03:46.099Z,8.29
2022-12-28T08:04:52.257Z,8.30
2022-12-28T08:05:51.605Z,8.32
2022-12-28T08:06:53.494Z,8.34
2022-12-28T08:07:59.819Z,8.37
2022-12-28T08:08:58.950Z,8.38
2022-12-28T08:10:00.738Z,8.38
2022-12-28T08:11:02.561Z,8.39
2022-12-28T08:12:04.356Z,8.40
2022-12-28T08:13:06.165Z,8.40
2022-12-28T08:14:07.971Z,8.42
2022-12-28T08:15:09.858Z,8.40
2022-12-28T08:16:12.263Z,8.39
2022-12-28T08:17:20.633Z,8.41
2022-12-28T08:18:17.725Z,8.42
2022-12-28T08:19:19.540Z,8.42
2022-12-28T08:20:21.547Z,8.41
2022-12-28T08:21:23.445Z,8.43
2022-12-28T08:22:25.283Z,8.42
2022-12-28T08:23:27.090Z,8.43
2022-12-28T08:24:28.941Z,8.46
2022-12-28T08:25:30.739Z,8.47
2022-12-28T08:26:32.614Z,8.47
2022-12-28T08:27:38.431Z,8.49
2022-12-28T08:28:38.023Z,8.50
2022-12-28T08:29:39.940Z,8.49
2022-12-28T08:30:41.981Z,8.49
2022-12-28T08:31:43.762Z,8.49
2022-12-28T08:32:45.563Z,8.49
2022-12-28T08:33:47.396Z,8.49
2022-12-28T08:34:49.365Z,8.48
2022-12-28T08:35:51.139Z,8.49
2022-12-28T08:36:53.117Z,8.50
2022-12-28T08:37:54.997Z,8.51
2022-12-28T08:38:56.735Z,8.53
2022-12-28T08:39:58.535Z,8.54
2022-12-28T08:41:00.326Z,8.56
2022-12-28T08:42:02.289Z,8.57
2022-12-28T08:43:04.413Z,8.57
2022-12-28T08:44:06.329Z,8.59
2022-12-28T08:45:08.145Z,8.60
2022-12-28T08:46:11.131Z,8.60
2022-12-28T08:47:13.064Z,8.61
2022-12-28T08:48:14.819Z,8.60
2022-12-28T08:49:16.641Z,8.61
2022-12-28T08:50:20.184Z,8.62
2022-12-28T08:51:22.409Z,8.64
2022-12-28T08:52:24.244Z,8.66
2022-12-28T08:53:26.051Z,8.65
2022-12-28T08:54:27.864Z,8.66
2022-12-28T08:55:29.649Z,8.69
2022-12-28T08:56:31.556Z,8.71
2022-12-28T08:57:33.408Z,8.70
2022-12-28T08:58:35.230Z,8.66
2022-12-28T08:59:37.012Z,8.68
2022-12-28T09:00:38.922Z,8.69
2022-12-28T09:01:44.326Z,8.69
2022-12-28T09:02:44.590Z,8.71
2022-12-28T09:03:46.600Z,8.74
2022-12-28T09:04:48.352Z,8.74
2022-12-28T09:05:54.442Z,8.75
2022-12-28T09:06:53.790Z,8.76
2022-12-28T09:07:59.603Z,8.80
2022-12-28T09:09:07.217Z,8.82
2022-12-28T09:10:03.087Z,8.79
2022-12-28T09:11:04.911Z,8.77
2022-12-28T09:12:06.712Z,8.76
2022-12-28T09:13:08.558Z,8.78
2022-12-28T09:14:10.375Z,8.78
2022-12-28T09:15:12.367Z,8.78
2022-12-28T09:16:14.584Z,8.80
2022-12-28T09:17:16.467Z,8.78
2022-12-28T09:18:18.316Z,8.79
2022-12-28T09:19:20.186Z,8.80
2022-12-28T09:20:22.017Z,8.80
2022-12-28T09:21:23.879Z,8.83
2022-12-28T09:22:25.667Z,8.84
2022-12-28T09:23:27.584Z,8.86
2022-12-28T09:24:29.414Z,8.87
2022-12-28T09:25:31.277Z,8.93
2022-12-28T09:26:33.258Z,8.95
2022-12-28T09:27:35.067Z,8.96
2022-12-28T09:28:37.013Z,8.96
2022-12-28T09:29:38.835Z,8.96
2022-12-28T09:30:41.216Z,8.95
2022-12-28T09:31:43.334Z,8.94
2022-12-28T09:32:45.197Z,8.94
2022-12-28T09:34:24.785Z,8.94
2022-12-28T09:34:50.658Z,8.94
2022-12-28T09:35:52.467Z,8.95
2022-12-28T09:36:54.384Z,8.94
2022-12-28T09:37:56.197Z,8.94
2022-12-28T09:38:58.067Z,8.95
2022-12-28T09:40:01.788Z,8.95
2022-12-28T09:41:03.792Z,8.96
2022-12-28T09:42:05.724Z,8.99
2022-12-28T09:43:07.537Z,8.98
2022-12-28T09:44:09.483Z,8.97
2022-12-28T09:45:11.357Z,8.96
2022-12-28T09:46:13.496Z,8.96
2022-12-28T09:47:15.407Z,8.94
2022-12-28T09:48:17.507Z,8.95
2022-12-28T09:49:19.484Z,8.98
2022-12-28T09:50:21.324Z,8.99
2022-12-28T09:51:23.090Z,9.00
2022-12-28T09:52:24.900Z,9.01
2022-12-28T09:53:26.773Z,9.00
2022-12-28T09:54:28.685Z,8.98
2022-12-28T09:55:30.512Z,8.96
2022-12-28T09:56:32.404Z,8.97
2022-12-28T09:57:34.229Z,8.96
2022-12-28T09:58:36.164Z,8.92
2022-12-28T09:59:37.998Z,8.88
2022-12-28T10:00:39.961Z,8.88
2022-12-28T10:01:41.955Z,8.86
2022-12-28T10:02:43.921Z,8.90
2022-12-28T10:03:45.821Z,8.90
2022-12-28T10:04:49.518Z,8.91
2022-12-28T10:05:51.368Z,8.94
2022-12-28T10:06:53.161Z,8.96
2022-12-28T10:07:55.043Z,8.95
2022-12-28T10:08:56.908Z,8.96
2022-12-28T10:09:58.763Z,8.98
2022-12-28T10:11:00.693Z,9.00
2022-12-28T10:12:02.499Z,9.03
2022-12-28T10:13:06.663Z,9.05
2022-12-28T10:14:07.919Z,9.07
2022-12-28T10:15:09.804Z,9.09
2022-12-28T10:16:12.391Z,9.07
2022-12-28T10:17:14.278Z,9.05
2022-12-28T10:18:16.106Z,9.03
2022-12-28T10:19:17.944Z,9.04
2022-12-28T10:20:19.892Z,9.00
2022-12-28T10:21:26.849Z,9.00
2022-12-28T10:22:25.386Z,8.98
2022-12-28T10:23:27.246Z,8.98
2022-12-28T10:24:31.848Z,8.98
2022-12-28T10:25:32.698Z,8.97
2022-12-28T10:26:34.608Z,8.98
2022-12-28T10:27:36.431Z,8.98
2022-12-28T10:28:38.254Z,8.99
2022-12-28T10:29:40.057Z,9.00
2022-12-28T10:30:42.028Z,9.00
2022-12-28T10:31:43.880Z,9.02
2022-12-28T10:32:45.783Z,9.03
2022-12-28T10:33:47.602Z,9.07
2022-12-28T10:34:49.499Z,9.09
2022-12-28T10:35:51.381Z,9.11
2022-12-28T10:36:53.217Z,9.13
2022-12-28T10:37:55.016Z,9.14
2022-12-28T10:38:56.839Z,9.13
2022-12-28T10:39:58.651Z,9.14
2022-12-28T10:41:00.612Z,9.15
2022-12-28T10:42:02.426Z,9.16
2022-12-28T10:43:10.192Z,9.18
2022-12-28T10:44:37.802Z,9.19
2022-12-28T10:45:11.505Z,9.20
2022-12-28T10:46:13.528Z,9.22
2022-12-28T10:47:15.335Z,9.21
2022-12-28T10:48:18.368Z,9.23
2022-12-28T10:49:20.308Z,9.24
2022-12-28T10:51:25.880Z,9.22
2022-12-28T10:52:27.715Z,9.19
2022-12-28T10:53:29.533Z,9.18
2022-12-28T10:54:31.369Z,9.17
2022-12-28T10:55:33.488Z,9.15
2022-12-28T10:56:35.608Z,9.12
2022-12-28T10:57:38.109Z,9.11
2022-12-28T10:58:40.027Z,9.11
2022-12-28T10:59:41.824Z,9.13
2022-12-28T11:00:52.136Z,9.12
2022-12-28T11:01:47.864Z,9.13
2022-12-28T11:02:49.841Z,9.12
2022-12-28T11:03:21.745Z,9.25
2022-12-28T11:03:51.807Z,9.09
2022-12-28T11:04:53.614Z,9.10
2022-12-28T11:05:57.410Z,9.10
2022-12-28T11:06:59.216Z,9.11
2022-12-28T11:08:01.047Z,9.12
2022-12-28T11:09:02.877Z,9.14
2022-12-28T11:10:04.770Z,9.14
2022-12-28T11:11:06.571Z,9.10
2022-12-28T11:12:08.413Z,9.10
2022-12-28T11:13:10.233Z,9.09
2022-12-28T11:14:12.066Z,9.09
2022-12-28T11:15:13.875Z,9.11
2022-12-28T11:16:16.030Z,9.08
2022-12-28T11:17:17.863Z,9.10
2022-12-28T11:18:19.673Z,9.11
2022-12-28T11:19:21.479Z,9.11
2022-12-28T11:20:23.393Z,9.13
2022-12-28T11:22:44.979Z,9.18
2022-12-28T11:23:46.796Z,9.19
2022-12-28T11:24:48.622Z,9.22
2022-12-28T11:25:50.420Z,9.19
2022-12-28T11:26:52.359Z,9.17
2022-12-28T11:27:54.218Z,9.17
2022-12-28T11:28:56.112Z,9.17
2022-12-28T11:29:57.926Z,9.16
2022-12-28T11:30:59.841Z,9.17
2022-12-28T11:32:01.720Z,9.15
2022-12-28T11:33:03.615Z,9.16
2022-12-28T11:34:05.427Z,9.15
2022-12-28T11:35:07.233Z,9.15
2022-12-28T11:36:10.313Z,9.16
2022-12-28T11:37:12.278Z,9.16
2022-12-28T11:38:14.130Z,9.15
2022-12-28T11:39:15.953Z,9.17
2022-12-28T11:40:17.784Z,9.17
2022-12-28T11:41:19.601Z,9.16
2022-12-28T11:42:39.182Z,9.15
2022-12-28T11:43:25.061Z,9.16
2022-12-28T11:44:26.878Z,9.15
2022-12-28T11:45:28.728Z,9.17
2022-12-28T11:46:30.609Z,9.18
2022-12-28T11:47:32.409Z,9.23
2022-12-28T11:48:34.264Z,9.23
2022-12-28T11:49:36.071Z,9.22
2022-12-28T11:50:37.896Z,9.21
2022-12-28T11:51:39.657Z,9.23
2022-12-28T11:52:41.561Z,9.22
2022-12-28T11:53:43.377Z,9.23
2022-12-28T11:54:45.159Z,9.22
2022-12-28T11:55:46.954Z,9.24
2022-12-28T11:56:48.850Z,9.23
2022-12-28T11:57:50.644Z,9.23
2022-12-28T11:58:52.476Z,9.24
2022-12-28T11:59:54.275Z,9.22
2022-12-28T12:00:56.086Z,9.22
2022-12-28T12:01:57.931Z,9.22
2022-12-28T12:02:59.720Z,9.22
2022-12-28T12:04:01.589Z,9.23
2022-12-28T12:05:03.361Z,9.26
2022-12-28T12:06:05.241Z,9.27
2022-12-28T12:07:07.058Z,9.26
2022-12-28T12:08:08.837Z,9.29
2022-12-28T12:09:10.682Z,9.28
2022-12-28T12:10:12.743Z,9.29
2022-12-28T12:11:14.512Z,9.27
2022-12-28T12:12:18.184Z,9.27
2022-12-28T12:13:19.927Z,9.27
2022-12-28T12:14:21.803Z,9.27
2022-12-28T12:15:23.734Z,9.28
2022-12-28T12:16:25.570Z,9.28
2022-12-28T12:17:27.413Z,9.26
2022-12-28T12:18:29.198Z,9.24
2022-12-28T12:19:31.011Z,9.25
2022-12-28T12:20:33.210Z,9.25
2022-12-28T12:21:34.995Z,9.26
2022-12-28T12:22:36.774Z,9.25
2022-12-28T12:23:38.704Z,9.25
2022-12-28T12:24:40.521Z,9.25
2022-12-28T12:25:42.420Z,9.27
2022-12-28T12:26:44.304Z,9.28
2022-12-28T12:27:46.073Z,9.28
2022-12-28T12:28:47.868Z,9.27
2022-12-28T12:29:49.702Z,9.26
2022-12-28T12:30:51.700Z,9.25
2022-12-28T12:31:53.475Z,9.23
2022-12-28T12:32:55.274Z,9.22
2022-12-28T12:33:57.058Z,9.21
2022-12-28T12:34:58.884Z,9.21
2022-12-28T12:36:00.666Z,9.21
2022-12-28T12:37:02.438Z,9.23
2022-12-28T12:38:04.238Z,9.22
2022-12-28T12:39:06.050Z,9.23
2022-12-28T12:40:07.961Z,9.24
2022-12-28T12:41:09.738Z,9.26
2022-12-28T12:42:11.544Z,9.30
2022-12-28T12:43:13.338Z,9.31
2022-12-28T12:44:15.113Z,9.29
2022-12-28T12:45:16.932Z,9.27
2022-12-28T12:46:19.067Z,9.28
2022-12-28T12:47:20.824Z,9.28
2022-12-28T12:48:22.614Z,9.29
2022-12-28T12:49:24.402Z,9.31
2022-12-28T12:50:26.211Z,9.31
2022-12-28T12:51:27.995Z,9.32
2022-12-28T12:52:29.789Z,9.33
2022-12-28T12:53:31.580Z,9.34
2022-12-28T12:54:33.373Z,9.34
2022-12-28T12:55:35.203Z,9.35
2022-12-28T12:56:37.095Z,9.36
2022-12-28T12:57:38.879Z,9.36
2022-12-28T12:58:40.664Z,9.37
2022-12-28T12:59:42.478Z,9.39
2022-12-28T13:00:48.622Z,9.41
2022-12-28T13:01:48.300Z,9.41
2022-12-28T13:02:50.233Z,9.43
2022-12-28T13:03:52.015Z,9.43
2022-12-28T13:04:53.822Z,9.43
2022-12-28T13:05:55.660Z,9.42
2022-12-28T13:06:57.573Z,9.40
2022-12-28T13:07:59.335Z,9.37
2022-12-28T13:09:05.302Z,9.35
2022-12-28T13:10:05.081Z,9.32
2022-12-28T13:11:06.897Z,9.27
2022-12-28T13:12:08.674Z,9.23
2022-12-28T13:13:10.461Z,9.23
2022-12-28T13:14:12.254Z,9.20
2022-12-28T13:15:14.078Z,9.19
2022-12-28T13:17:09.512Z,9.31
2022-12-28T13:18:43.568Z,9.21
2022-12-28T13:19:14.931Z,9.22
2022-12-28T13:20:16.943Z,9.19
2022-12-28T13:21:18.752Z,9.16
2022-12-28T13:22:20.711Z,9.15
2022-12-28T13:23:22.520Z,9.16
2022-12-28T13:24:24.338Z,9.19
2022-12-28T13:25:26.196Z,9.20
2022-12-28T13:26:29.831Z,9.21
2022-12-28T13:27:31.788Z,9.22
2022-12-28T13:28:33.589Z,9.24
2022-12-28T13:29:35.387Z,9.25
2022-12-28T13:30:37.524Z,9.27
2022-12-28T13:31:39.324Z,9.26
2022-12-28T13:32:41.178Z,9.29
2022-12-28T13:33:43.032Z,9.29
2022-12-28T13:34:44.848Z,9.30
2022-12-28T13:35:46.666Z,9.31
2022-12-28T13:36:48.517Z,9.33
2022-12-28T13:37:50.398Z,9.33
2022-12-28T13:38:52.222Z,9.33
2022-12-28T13:39:54.019Z,9.37
2022-12-28T13:40:55.846Z,9.37
2022-12-28T13:41:57.683Z,9.38
2022-12-28T13:42:59.545Z,9.39
2022-12-28T13:44:01.376Z,9.37
2022-12-28T13:45:03.209Z,9.40
2022-12-28T13:46:05.206Z,9.40
2022-12-28T13:47:07.010Z,9.41
2022-12-28T13:48:08.847Z,9.40